sensor_id;sensor_type;location;lat;lon;timestamp;pressure;altitude;pressure_sealevel;temperature;humidity
56330;BME280;42236;48.058;10.632;2023-02-28T00:00:01;95023.44;;;-3.47;83.02
56330;BME280;42236;48.058;10.632;2023-02-28T00:02:46;95020.09;;;-3.42;82.50
56330;BME280;42236;48.058;10.632;2023-02-28T00:05:32;95026.16;;;-3.41;82.44
56330;BME280;42236;48.058;10.632;2023-02-28T00:08:18;95024.56;;;-3.42;81.92
56330;BME280;42236;48.058;10.632;2023-02-28T00:11:12;95019.22;;;-3.48;81.77
56330;BME280;42236;48.058;10.632;2023-02-28T00:13:58;95020.81;;;-3.47;81.98
56330;BME280;42236;48.058;10.632;2023-02-28T00:16:44;95021.31;;;-3.50;82.11
56330;BME280;42236;48.058;10.632;2023-02-28T00:19:29;95017.38;;;-3.47;82.22
56330;BME280;42236;48.058;10.632;2023-02-28T00:22:16;95014.97;;;-3.49;81.85
56330;BME280;42236;48.058;10.632;2023-02-28T00:25:03;95015.53;;;-3.47;82.24
56330;BME280;42236;48.058;10.632;2023-02-28T00:27:50;95017.69;;;-3.44;81.94
56330;BME280;42236;48.058;10.632;2023-02-28T00:30:36;95012.72;;;-3.40;81.69
56330;BME280;42236;48.058;10.632;2023-02-28T00:33:22;95018.97;;;-3.46;81.51
56330;BME280;42236;48.058;10.632;2023-02-28T00:36:09;95022.94;;;-3.44;81.76
56330;BME280;42236;48.058;10.632;2023-02-28T00:38:55;95007.78;;;-3.53;80.90
56330;BME280;42236;48.058;10.632;2023-02-28T00:41:41;95009.63;;;-3.54;81.22
56330;BME280;42236;48.058;10.632;2023-02-28T00:44:26;95010.44;;;-3.53;81.28
56330;BME280;42236;48.058;10.632;2023-02-28T00:47:12;95003.81;;;-3.56;81.30
56330;BME280;42236;48.058;10.632;2023-02-28T00:49:58;95001.72;;;-3.54;81.00
56330;BME280;42236;48.058;10.632;2023-02-28T00:52:43;95005.47;;;-3.50;80.96
56330;BME280;42236;48.058;10.632;2023-02-28T00:55:29;95010.50;;;-3.48;80.85
56330;BME280;42236;48.058;10.632;2023-02-28T00:58:15;95010.44;;;-3.53;80.61
56330;BME280;42236;48.058;10.632;2023-02-28T01:01:01;95005.47;;;-3.50;80.50
56330;BME280;42236;48.058;10.632;2023-02-28T01:03:46;95008.59;;;-3.53;80.50
56330;BME280;42236;48.058;10.632;2023-02-28T01:06:32;95006.50;;;-3.51;80.54
56330;BME280;42236;48.058;10.632;2023-02-28T01:09:18;94999.66;;;-3.52;80.48
56330;BME280;42236;48.058;10.632;2023-02-28T01:12:04;94996.94;;;-3.57;80.11
56330;BME280;42236;48.058;10.632;2023-02-28T01:14:50;94996.63;;;-3.60;79.84
56330;BME280;42236;48.058;10.632;2023-02-28T01:17:35;95000.06;;;-3.60;79.84
56330;BME280;42236;48.058;10.632;2023-02-28T01:20:21;94997.91;;;-3.63;79.96
56330;BME280;42236;48.058;10.632;2023-02-28T01:23:07;94993.13;;;-3.66;79.91
56330;BME280;42236;48.058;10.632;2023-02-28T01:25:52;94993.69;;;-3.64;80.36
56330;BME280;42236;48.058;10.632;2023-02-28T01:28:38;94988.16;;;-3.62;80.03
56330;BME280;42236;48.058;10.632;2023-02-28T01:31:24;94991.19;;;-3.71;79.53
56330;BME280;42236;48.058;10.632;2023-02-28T01:34:09;94995.91;;;-3.73;79.88
56330;BME280;42236;48.058;10.632;2023-02-28T01:36:55;94988.56;;;-3.71;79.93
56330;BME280;42236;48.058;10.632;2023-02-28T01:39:41;94989.44;;;-3.65;80.02
56330;BME280;42236;48.058;10.632;2023-02-28T01:42:26;94980.66;;;-3.71;79.93
56330;BME280;42236;48.058;10.632;2023-02-28T01:45:22;94981.28;;;-3.63;80.41
56330;BME280;42236;48.058;10.632;2023-02-28T01:48:10;94985.78;;;-3.64;79.34
56330;BME280;42236;48.058;10.632;2023-02-28T01:51:02;94979.38;;;-3.68;80.04
56330;BME280;42236;48.058;10.632;2023-02-28T01:54:02;94976.19;;;-3.70;79.65
56330;BME280;42236;48.058;10.632;2023-02-28T01:56:55;94964.78;;;-3.76;79.85
56330;BME280;42236;48.058;10.632;2023-02-28T01:59:53;94957.16;;;-3.72;80.06
56330;BME280;42236;48.058;10.632;2023-02-28T02:02:42;94961.66;;;-3.73;80.03
56330;BME280;42236;48.058;10.632;2023-02-28T02:05:30;94963.72;;;-3.75;80.52
56330;BME280;42236;48.058;10.632;2023-02-28T02:08:22;94960.84;;;-3.73;80.70
56330;BME280;42236;48.058;10.632;2023-02-28T02:11:11;94955.03;;;-3.75;80.74
56330;BME280;42236;48.058;10.632;2023-02-28T02:20:38;94958.94;;;-3.78;80.60
56330;BME280;42236;48.058;10.632;2023-02-28T02:35:48;94957.44;;;-3.91;80.85
56330;BME280;42236;48.058;10.632;2023-02-28T02:38:55;94951.63;;;-3.93;80.65
56330;BME280;42236;48.058;10.632;2023-02-28T02:41:51;94951.06;;;-3.95;80.94
56330;BME280;42236;48.058;10.632;2023-02-28T02:44:47;94955.03;;;-3.92;81.28
56330;BME280;42236;48.058;10.632;2023-02-28T02:47:37;94952.97;;;-3.90;81.21
56330;BME280;42236;48.058;10.632;2023-02-28T02:50:28;94959.47;;;-3.98;80.86
56330;BME280;42236;48.058;10.632;2023-02-28T02:53:17;94951.78;;;-3.99;80.64
56330;BME280;42236;48.058;10.632;2023-02-28T02:56:06;94954.34;;;-4.04;81.27
56330;BME280;42236;48.058;10.632;2023-02-28T02:58:54;94954.34;;;-4.04;81.28
56330;BME280;42236;48.058;10.632;2023-02-28T03:01:41;94957.22;;;-4.06;81.55
56330;BME280;42236;48.058;10.632;2023-02-28T03:04:32;94965.38;;;-4.08;81.40
56330;BME280;42236;48.058;10.632;2023-02-28T03:07:20;94967.44;;;-4.10;81.66
56330;BME280;42236;48.058;10.632;2023-02-28T03:10:36;94969.13;;;-4.20;82.11
56330;BME280;42236;48.058;10.632;2023-02-28T03:13:48;94970.50;;;-4.18;81.77
56330;BME280;42236;48.058;10.632;2023-02-28T03:23:16;94983.56;;;-4.23;82.42
56330;BME280;42236;48.058;10.632;2023-02-28T03:26:07;94985.47;;;-4.18;82.19
56330;BME280;42236;48.058;10.632;2023-02-28T03:32:15;94977.50;;;-4.23;82.10
56330;BME280;42236;48.058;10.632;2023-02-28T03:35:14;94976.38;;;-4.27;82.41
56330;BME280;42236;48.058;10.632;2023-02-28T03:44:45;94975.56;;;-4.45;82.37
56330;BME280;42236;48.058;10.632;2023-02-28T03:47:51;94991.03;;;-4.48;82.64
56330;BME280;42236;48.058;10.632;2023-02-28T03:50:41;94990.63;;;-4.57;82.98
56330;BME280;42236;48.058;10.632;2023-02-28T03:53:28;94995.44;;;-4.54;83.08
56330;BME280;42236;48.058;10.632;2023-02-28T03:56:22;94994.78;;;-4.61;83.30
56330;BME280;42236;48.058;10.632;2023-02-28T03:59:17;94985.75;;;-4.65;83.49
56330;BME280;42236;48.058;10.632;2023-02-28T04:02:04;94991.50;;;-4.68;83.94
56330;BME280;42236;48.058;10.632;2023-02-28T04:04:49;94995.13;;;-4.69;83.96
56330;BME280;42236;48.058;10.632;2023-02-28T04:07:36;94993.56;;;-4.70;83.79
56330;BME280;42236;48.058;10.632;2023-02-28T04:10:22;94994.00;;;-4.74;84.31
56330;BME280;42236;48.058;10.632;2023-02-28T04:13:08;94999.25;;;-4.74;84.20
56330;BME280;42236;48.058;10.632;2023-02-28T04:15:54;95004.66;;;-4.68;84.41
56330;BME280;42236;48.058;10.632;2023-02-28T04:18:40;95005.19;;;-4.66;84.25
56330;BME280;42236;48.058;10.632;2023-02-28T04:21:26;95007.03;;;-4.67;84.46
56330;BME280;42236;48.058;10.632;2023-02-28T04:24:14;95011.59;;;-4.62;84.26
56330;BME280;42236;48.058;10.632;2023-02-28T04:27:00;95011.69;;;-4.57;84.36
56330;BME280;42236;48.058;10.632;2023-02-28T04:29:46;95008.69;;;-4.49;84.24
56330;BME280;42236;48.058;10.632;2023-02-28T04:32:31;95001.31;;;-4.47;84.03
56330;BME280;42236;48.058;10.632;2023-02-28T04:35:17;95006.03;;;-4.49;84.01
56330;BME280;42236;48.058;10.632;2023-02-28T04:38:02;95013.69;;;-4.47;84.49
56330;BME280;42236;48.058;10.632;2023-02-28T04:40:48;95004.50;;;-4.45;84.85
56330;BME280;42236;48.058;10.632;2023-02-28T04:43:34;94991.34;;;-4.45;84.55
56330;BME280;42236;48.058;10.632;2023-02-28T04:46:20;95001.44;;;-4.42;84.33
56330;BME280;42236;48.058;10.632;2023-02-28T04:49:06;95001.31;;;-4.47;84.73
56330;BME280;42236;48.058;10.632;2023-02-28T04:51:52;95008.41;;;-4.47;85.20
56330;BME280;42236;48.058;10.632;2023-02-28T04:54:38;95007.31;;;-4.52;85.48
56330;BME280;42236;48.058;10.632;2023-02-28T04:57:24;95007.63;;;-4.48;85.39
56330;BME280;42236;48.058;10.632;2023-02-28T05:00:10;94995.81;;;-4.45;85.35
56330;BME280;42236;48.058;10.632;2023-02-28T05:02:56;94994.56;;;-4.43;85.20
56330;BME280;42236;48.058;10.632;2023-02-28T05:05:42;94998.22;;;-4.44;85.37
56330;BME280;42236;48.058;10.632;2023-02-28T05:08:28;94998.81;;;-4.42;85.36
56330;BME280;42236;48.058;10.632;2023-02-28T05:11:21;94994.56;;;-4.43;85.34
56330;BME280;42236;48.058;10.632;2023-02-28T05:14:13;94996.16;;;-4.42;85.60
56330;BME280;42236;48.058;10.632;2023-02-28T05:16:59;95001.75;;;-4.38;85.51
56330;BME280;42236;48.058;10.632;2023-02-28T05:19:44;95004.59;;;-4.40;85.67
56330;BME280;42236;48.058;10.632;2023-02-28T05:22:30;95010.69;;;-4.39;85.69
56330;BME280;42236;48.058;10.632;2023-02-28T05:25:18;95010.50;;;-4.33;85.80
56330;BME280;42236;48.058;10.632;2023-02-28T05:28:05;95019.06;;;-4.25;85.44
56330;BME280;42236;48.058;10.632;2023-02-28T05:30:51;95022.75;;;-4.26;85.24
56330;BME280;42236;48.058;10.632;2023-02-28T05:33:36;95025.38;;;-4.26;85.75
56330;BME280;42236;48.058;10.632;2023-02-28T05:36:22;95015.16;;;-4.23;85.47
56330;BME280;42236;48.058;10.632;2023-02-28T05:39:08;95019.19;;;-4.20;85.81
56330;BME280;42236;48.058;10.632;2023-02-28T05:41:57;95022.03;;;-4.22;85.69
56330;BME280;42236;48.058;10.632;2023-02-28T05:44:43;95027.16;;;-4.15;85.69
56330;BME280;42236;48.058;10.632;2023-02-28T05:47:29;95027.38;;;-4.17;85.64
56330;BME280;42236;48.058;10.632;2023-02-28T05:50:14;95036.66;;;-4.14;85.54
56330;BME280;42236;48.058;10.632;2023-02-28T05:53:00;95042.00;;;-4.09;85.94
56330;BME280;42236;48.058;10.632;2023-02-28T05:55:46;95039.28;;;-4.14;85.72
56330;BME280;42236;48.058;10.632;2023-02-28T05:58:31;95041.50;;;-4.06;85.80
56330;BME280;42236;48.058;10.632;2023-02-28T06:04:19;95048.06;;;-4.09;85.75
56330;BME280;42236;48.058;10.632;2023-02-28T06:07:06;95061.56;;;-4.05;85.79
56330;BME280;42236;48.058;10.632;2023-02-28T06:09:51;95055.25;;;-4.04;85.70
56330;BME280;42236;48.058;10.632;2023-02-28T06:12:37;95065.34;;;-4.01;85.49
56330;BME280;42236;48.058;10.632;2023-02-28T06:15:23;95061.97;;;-3.96;86.02
56330;BME280;42236;48.058;10.632;2023-02-28T06:18:09;95066.44;;;-3.97;85.84
56330;BME280;42236;48.058;10.632;2023-02-28T06:20:55;95070.78;;;-3.91;85.73
56330;BME280;42236;48.058;10.632;2023-02-28T06:23:41;95071.06;;;-3.87;85.85
56330;BME280;42236;48.058;10.632;2023-02-28T06:26:26;95070.50;;;-3.89;85.27
56330;BME280;42236;48.058;10.632;2023-02-28T06:29:12;95056.38;;;-4.00;85.77
56330;BME280;42236;48.058;10.632;2023-02-28T06:31:58;95057.97;;;-3.99;86.08
56330;BME280;42236;48.058;10.632;2023-02-28T06:34:44;95061.25;;;-3.92;86.12
56330;BME280;42236;48.058;10.632;2023-02-28T06:37:33;95055.44;;;-3.94;85.91
56330;BME280;42236;48.058;10.632;2023-02-28T06:40:18;95047.06;;;-3.91;85.59
56330;BME280;42236;48.058;10.632;2023-02-28T06:43:04;95062.88;;;-3.91;85.93
56330;BME280;42236;48.058;10.632;2023-02-28T06:45:50;95060.22;;;-3.91;85.40
56330;BME280;42236;48.058;10.632;2023-02-28T06:48:36;95061.34;;;-3.87;85.62
56330;BME280;42236;48.058;10.632;2023-02-28T06:51:21;95066.38;;;-3.85;85.49
56330;BME280;42236;48.058;10.632;2023-02-28T06:54:07;95065.50;;;-3.91;85.35
56330;BME280;42236;48.058;10.632;2023-02-28T06:56:57;95066.63;;;-3.87;85.51
56330;BME280;42236;48.058;10.632;2023-02-28T06:59:43;95077.16;;;-3.87;85.66
56330;BME280;42236;48.058;10.632;2023-02-28T07:02:29;95082.75;;;-3.83;85.55
56330;BME280;42236;48.058;10.632;2023-02-28T07:05:15;95074.44;;;-3.75;85.58
56330;BME280;42236;48.058;10.632;2023-02-28T07:08:01;95077.47;;;-3.66;85.34
56330;BME280;42236;48.058;10.632;2023-02-28T07:10:47;95093.38;;;-3.61;84.95
56330;BME280;42236;48.058;10.632;2023-02-28T07:13:32;95096.97;;;-3.67;85.20
56330;BME280;42236;48.058;10.632;2023-02-28T07:16:18;95098.09;;;-3.63;85.01
56330;BME280;42236;48.058;10.632;2023-02-28T07:19:04;95092.81;;;-3.63;84.51
56330;BME280;42236;48.058;10.632;2023-02-28T07:21:49;95095.78;;;-3.59;84.57
56330;BME280;42236;48.058;10.632;2023-02-28T07:24:35;95098.72;;;-3.56;84.35
56330;BME280;42236;48.058;10.632;2023-02-28T07:27:20;95096.34;;;-3.57;84.25
56330;BME280;42236;48.058;10.632;2023-02-28T07:30:11;95095.38;;;-3.51;84.34
56330;BME280;42236;48.058;10.632;2023-02-28T07:32:57;95099.06;;;-3.52;84.32
56330;BME280;42236;48.058;10.632;2023-02-28T07:35:43;95097.28;;;-3.47;84.48
56330;BME280;42236;48.058;10.632;2023-02-28T07:38:29;95096.78;;;-3.44;84.31
56330;BME280;42236;48.058;10.632;2023-02-28T07:41:15;95103.28;;;-3.34;84.23
56330;BME280;42236;48.058;10.632;2023-02-28T07:44:01;95106.41;;;-3.37;83.83
56330;BME280;42236;48.058;10.632;2023-02-28T07:46:48;95113.25;;;-3.36;83.62
56330;BME280;42236;48.058;10.632;2023-02-28T07:49:36;95117.59;;;-3.30;83.48
56330;BME280;42236;48.058;10.632;2023-02-28T07:52:21;95113.25;;;-3.19;83.17
56330;BME280;42236;48.058;10.632;2023-02-28T07:55:09;95114.38;;;-3.15;82.70
56330;BME280;42236;48.058;10.632;2023-02-28T07:57:57;95119.81;;;-3.22;82.65
56330;BME280;42236;48.058;10.632;2023-02-28T08:00:42;95117.09;;;-3.27;82.37
56330;BME280;42236;48.058;10.632;2023-02-28T08:03:28;95117.88;;;-3.27;82.48
56330;BME280;42236;48.058;10.632;2023-02-28T08:06:21;95109.97;;;-3.27;82.47
56330;BME280;42236;48.058;10.632;2023-02-28T08:09:07;95112.94;;;-3.23;82.47
56330;BME280;42236;48.058;10.632;2023-02-28T08:11:53;95108.38;;;-3.11;82.58
56330;BME280;42236;48.058;10.632;2023-02-28T08:14:39;95113.72;;;-3.06;82.28
56330;BME280;42236;48.058;10.632;2023-02-28T08:17:25;95109.78;;;-3.03;81.71
56330;BME280;42236;48.058;10.632;2023-02-28T08:20:11;95109.06;;;-2.98;81.89
56330;BME280;42236;48.058;10.632;2023-02-28T08:22:56;95114.41;;;-2.93;81.87
56330;BME280;42236;48.058;10.632;2023-02-28T08:25:42;95120.88;;;-2.84;81.28
56330;BME280;42236;48.058;10.632;2023-02-28T08:28:28;95122.31;;;-2.93;81.02
56330;BME280;42236;48.058;10.632;2023-02-28T08:31:15;95117.09;;;-2.88;81.43
56330;BME280;42236;48.058;10.632;2023-02-28T08:34:08;95116.53;;;-2.90;81.04
56330;BME280;42236;48.058;10.632;2023-02-28T08:36:54;95120.06;;;-2.85;81.35
56330;BME280;42236;48.058;10.632;2023-02-28T08:39:41;95119.41;;;-2.75;80.89
56330;BME280;42236;48.058;10.632;2023-02-28T08:42:26;95114.75;;;-2.68;80.46
56330;BME280;42236;48.058;10.632;2023-02-28T08:45:13;95123.47;;;-2.67;80.42
56330;BME280;42236;48.058;10.632;2023-02-28T08:47:59;95134.88;;;-2.62;80.17
56330;BME280;42236;48.058;10.632;2023-02-28T08:50:54;95146.72;;;-2.64;79.97
56330;BME280;42236;48.058;10.632;2023-02-28T08:53:40;95135.19;;;-2.58;80.92
56330;BME280;42236;48.058;10.632;2023-02-28T08:56:27;95140.28;;;-2.51;80.03
56330;BME280;42236;48.058;10.632;2023-02-28T08:59:13;95137.16;;;-2.48;79.64
56330;BME280;42236;48.058;10.632;2023-02-28T09:01:59;95135.44;;;-2.38;79.89
56330;BME280;42236;48.058;10.632;2023-02-28T09:04:45;95145.31;;;-2.28;79.67
56330;BME280;42236;48.058;10.632;2023-02-28T09:07:30;95139.25;;;-2.28;79.22
56330;BME280;42236;48.058;10.632;2023-02-28T09:10:16;95148.53;;;-2.26;78.92
56330;BME280;42236;48.058;10.632;2023-02-28T09:13:02;95147.94;;;-2.06;79.65
56330;BME280;42236;48.058;10.632;2023-02-28T09:15:48;95151.25;;;-1.94;79.02
56330;BME280;42236;48.058;10.632;2023-02-28T09:18:35;95149.75;;;-1.84;78.57
56330;BME280;42236;48.058;10.632;2023-02-28T09:21:23;95155.91;;;-1.79;78.52
56330;BME280;42236;48.058;10.632;2023-02-28T09:24:08;95164.13;;;-1.75;78.12
56330;BME280;42236;48.058;10.632;2023-02-28T09:26:57;95168.72;;;-1.65;78.55
56330;BME280;42236;48.058;10.632;2023-02-28T09:29:42;95172.91;;;-1.69;77.48
56330;BME280;42236;48.058;10.632;2023-02-28T09:32:28;95165.44;;;-1.78;77.41
56330;BME280;42236;48.058;10.632;2023-02-28T09:35:14;95163.97;;;-1.90;76.94
56330;BME280;42236;48.058;10.632;2023-02-28T09:38:01;95169.50;;;-1.92;77.47
56330;BME280;42236;48.058;10.632;2023-02-28T09:41:03;95175.31;;;-1.95;77.72
56330;BME280;42236;48.058;10.632;2023-02-28T09:43:55;95174.91;;;-1.82;77.74
56330;BME280;42236;48.058;10.632;2023-02-28T09:46:44;95184.91;;;-1.84;77.05
56330;BME280;42236;48.058;10.632;2023-02-28T09:49:38;95180.59;;;-1.95;76.68
56330;BME280;42236;48.058;10.632;2023-02-28T09:52:30;95191.22;;;-1.90;77.91
56330;BME280;42236;48.058;10.632;2023-02-28T09:55:26;95185.28;;;-1.75;77.96
56330;BME280;42236;48.058;10.632;2023-02-28T09:58:23;95191.69;;;-1.71;76.57
56330;BME280;42236;48.058;10.632;2023-02-28T10:04:14;95196.28;;;-1.61;76.51
56330;BME280;42236;48.058;10.632;2023-02-28T10:07:17;95193.22;;;-1.48;76.66
56330;BME280;42236;48.058;10.632;2023-02-28T10:10:37;95201.47;;;-1.44;75.70
56330;BME280;42236;48.058;10.632;2023-02-28T10:13:30;95199.13;;;-1.36;76.20
56330;BME280;42236;48.058;10.632;2023-02-28T10:16:38;95195.69;;;-1.36;75.02
56330;BME280;42236;48.058;10.632;2023-02-28T10:19:33;95188.00;;;-1.38;76.79
56330;BME280;42236;48.058;10.632;2023-02-28T10:22:26;95188.91;;;-1.27;76.89
56330;BME280;42236;48.058;10.632;2023-02-28T10:25:34;95199.34;;;-1.15;75.53
56330;BME280;42236;48.058;10.632;2023-02-28T10:28:20;95205.13;;;-1.18;76.33
56330;BME280;42236;48.058;10.632;2023-02-28T10:31:10;95202.38;;;-1.29;74.97
56330;BME280;42236;48.058;10.632;2023-02-28T10:33:56;95202.66;;;-1.30;76.85
56330;BME280;42236;48.058;10.632;2023-02-28T10:36:42;95215.03;;;-1.36;77.36
56330;BME280;42236;48.058;10.632;2023-02-28T10:42:26;95208.47;;;-1.55;77.76
56330;BME280;42236;48.058;10.632;2023-02-28T10:45:16;95217.91;;;-1.64;77.83
56330;BME280;42236;48.058;10.632;2023-02-28T10:48:05;95217.44;;;-1.61;78.23
56330;BME280;42236;48.058;10.632;2023-02-28T10:50:53;95212.59;;;-1.42;77.87
56330;BME280;42236;48.058;10.632;2023-02-28T10:53:50;95219.59;;;-1.26;77.56
56330;BME280;42236;48.058;10.632;2023-02-28T10:56:36;95214.63;;;-1.22;76.86
56330;BME280;42236;48.058;10.632;2023-02-28T10:59:30;95213.13;;;-1.40;76.79
56330;BME280;42236;48.058;10.632;2023-02-28T11:02:33;95220.78;;;-1.44;75.94
56330;BME280;42236;48.058;10.632;2023-02-28T11:05:31;95224.84;;;-1.31;77.16
56330;BME280;42236;48.058;10.632;2023-02-28T11:08:18;95227.59;;;-1.48;75.86
56330;BME280;42236;48.058;10.632;2023-02-28T11:11:05;95226.31;;;-1.45;75.80
56330;BME280;42236;48.058;10.632;2023-02-28T11:13:54;95229.69;;;-1.50;76.20
56330;BME280;42236;48.058;10.632;2023-02-28T11:16:40;95213.94;;;-1.40;76.80
56330;BME280;42236;48.058;10.632;2023-02-28T11:19:28;95225.72;;;-1.25;76.86
56330;BME280;42236;48.058;10.632;2023-02-28T11:22:22;95213.44;;;-1.37;75.50
56330;BME280;42236;48.058;10.632;2023-02-28T11:25:19;95221.97;;;-1.30;75.12
56330;BME280;42236;48.058;10.632;2023-02-28T11:28:25;95223.06;;;-1.25;75.83
56330;BME280;42236;48.058;10.632;2023-02-28T11:34:01;95215.28;;;-1.05;74.67
56330;BME280;42236;48.058;10.632;2023-02-28T11:36:47;95212.69;;;-1.00;75.09
56330;BME280;42236;48.058;10.632;2023-02-28T11:39:33;95213.59;;;-0.84;74.44
56330;BME280;42236;48.058;10.632;2023-02-28T11:42:35;95213.53;;;-0.94;74.03
56330;BME280;42236;48.058;10.632;2023-02-28T11:55:02;95208.47;;;-0.58;72.92
56330;BME280;42236;48.058;10.632;2023-02-28T11:58:14;95214.38;;;-0.46;74.33
56330;BME280;42236;48.058;10.632;2023-02-28T12:07:49;95213.69;;;-0.31;73.69
56330;BME280;42236;48.058;10.632;2023-02-28T12:14:35;95218.78;;;-0.62;73.17
56330;BME280;42236;48.058;10.632;2023-02-28T12:17:32;95203.41;;;-0.65;74.19
56330;BME280;42236;48.058;10.632;2023-02-28T12:20:45;95211.66;;;-0.56;73.16
56330;BME280;42236;48.058;10.632;2023-02-28T12:26:44;95202.56;;;-0.28;72.24
56330;BME280;42236;48.058;10.632;2023-02-28T12:29:43;95202.34;;;-0.16;72.50
56330;BME280;42236;48.058;10.632;2023-02-28T12:32:40;95207.16;;;-0.03;71.94
56330;BME280;42236;48.058;10.632;2023-02-28T12:35:37;95203.75;;;0.07;72.43
56330;BME280;42236;48.058;10.632;2023-02-28T12:39:00;95197.44;;;0.18;70.24
56330;BME280;42236;48.058;10.632;2023-02-28T12:42:05;95204.59;;;0.17;70.63
56330;BME280;42236;48.058;10.632;2023-02-28T12:44:57;95200.28;;;0.01;72.89
56330;BME280;42236;48.058;10.632;2023-02-28T12:47:47;95207.44;;;-0.05;72.72
56330;BME280;42236;48.058;10.632;2023-02-28T12:50:34;95193.66;;;0.04;73.03
56330;BME280;42236;48.058;10.632;2023-02-28T12:53:32;95196.56;;;0.02;71.69
56330;BME280;42236;48.058;10.632;2023-02-28T12:59:48;95189.94;;;-0.01;71.62
56330;BME280;42236;48.058;10.632;2023-02-28T13:06:20;95189.50;;;0.33;70.34
56330;BME280;42236;48.058;10.632;2023-02-28T13:09:16;95185.34;;;0.63;70.82
56330;BME280;42236;48.058;10.632;2023-02-28T13:12:12;95185.06;;;0.80;69.60
56330;BME280;42236;48.058;10.632;2023-02-28T13:15:08;95182.13;;;0.76;67.86
56330;BME280;42236;48.058;10.632;2023-02-28T13:18:02;95181.06;;;0.77;70.57
56330;BME280;42236;48.058;10.632;2023-02-28T13:20:48;95177.09;;;0.64;69.95
56330;BME280;42236;48.058;10.632;2023-02-28T13:29:30;95179.47;;;0.71;69.47
56330;BME280;42236;48.058;10.632;2023-02-28T13:38:12;95172.03;;;0.58;69.49
56330;BME280;42236;48.058;10.632;2023-02-28T13:44:19;95168.88;;;0.66;71.24
56330;BME280;42236;48.058;10.632;2023-02-28T13:47:33;95165.94;;;0.68;69.58
56330;BME280;42236;48.058;10.632;2023-02-28T13:56:06;95170.19;;;0.69;70.09
56330;BME280;42236;48.058;10.632;2023-02-28T13:59:00;95163.56;;;0.56;68.98
56330;BME280;42236;48.058;10.632;2023-02-28T14:07:49;95167.78;;;0.62;70.28
56330;BME280;42236;48.058;10.632;2023-02-28T14:10:44;95171.53;;;0.61;69.54
56330;BME280;42236;48.058;10.632;2023-02-28T14:16:39;95172.59;;;0.80;69.29
56330;BME280;42236;48.058;10.632;2023-02-28T14:19:27;95174.69;;;0.94;68.61
56330;BME280;42236;48.058;10.632;2023-02-28T14:31:34;95163.50;;;1.27;67.60
56330;BME280;42236;48.058;10.632;2023-02-28T14:37:30;95162.47;;;1.28;69.08
56330;BME280;42236;48.058;10.632;2023-02-28T14:40:22;95170.97;;;1.20;68.63
56330;BME280;42236;48.058;10.632;2023-02-28T14:43:20;95171.25;;;1.19;68.12
56330;BME280;42236;48.058;10.632;2023-02-28T14:46:07;95168.31;;;1.20;68.95
56330;BME280;42236;48.058;10.632;2023-02-28T14:48:52;95164.59;;;1.06;68.29
56330;BME280;42236;48.058;10.632;2023-02-28T14:51:38;95165.69;;;1.00;68.71
56330;BME280;42236;48.058;10.632;2023-02-28T14:54:24;95167.25;;;1.01;68.60
56330;BME280;42236;48.058;10.632;2023-02-28T15:00:21;95173.91;;;1.09;68.96
56330;BME280;42236;48.058;10.632;2023-02-28T15:03:22;95174.97;;;1.08;68.35
56330;BME280;42236;48.058;10.632;2023-02-28T15:06:16;95177.63;;;1.02;67.93
56330;BME280;42236;48.058;10.632;2023-02-28T15:09:14;95175.22;;;1.01;68.36
56330;BME280;42236;48.058;10.632;2023-02-28T15:12:01;95181.59;;;1.10;69.02
56330;BME280;42236;48.058;10.632;2023-02-28T15:14:47;95178.41;;;1.13;68.87
56330;BME280;42236;48.058;10.632;2023-02-28T15:17:32;95184.78;;;1.17;69.16
56330;BME280;42236;48.058;10.632;2023-02-28T15:20:19;95178.94;;;1.20;68.93
56330;BME280;42236;48.058;10.632;2023-02-28T15:23:06;95184.78;;;1.17;68.96
56330;BME280;42236;48.058;10.632;2023-02-28T15:25:52;95183.72;;;1.13;68.94
56330;BME280;42236;48.058;10.632;2023-02-28T15:28:38;95173.63;;;1.20;69.03
56330;BME280;42236;48.058;10.632;2023-02-28T15:31:29;95182.13;;;1.22;68.77
56330;BME280;42236;48.058;10.632;2023-02-28T15:34:24;95177.09;;;1.26;68.71
56330;BME280;42236;48.058;10.632;2023-02-28T15:37:47;95184.53;;;1.29;68.82
56330;BME280;42236;48.058;10.632;2023-02-28T15:40:44;95186.09;;;1.30;69.31
56330;BME280;42236;48.058;10.632;2023-02-28T15:43:32;95190.09;;;1.33;68.94
56330;BME280;42236;48.058;10.632;2023-02-28T15:46:19;95198.34;;;1.26;68.50
56330;BME280;42236;48.058;10.632;2023-02-28T15:49:04;95192.75;;;1.22;69.14
56330;BME280;42236;48.058;10.632;2023-02-28T15:51:51;95190.09;;;1.22;69.36
56330;BME280;42236;48.058;10.632;2023-02-28T15:54:38;95190.09;;;1.22;69.31
56330;BME280;42236;48.058;10.632;2023-02-28T15:57:26;95194.88;;;1.25;69.46
56330;BME280;42236;48.058;10.632;2023-02-28T16:00:21;95190.63;;;1.24;68.72
56330;BME280;42236;48.058;10.632;2023-02-28T16:03:24;95198.06;;;1.22;68.13
56330;BME280;42236;48.058;10.632;2023-02-28T16:06:26;95196.50;;;1.16;68.65
56330;BME280;42236;48.058;10.632;2023-02-28T16:09:16;95202.31;;;1.18;69.71
56330;BME280;42236;48.058;10.632;2023-02-28T16:12:02;95197.28;;;1.12;69.51
56330;BME280;42236;48.058;10.632;2023-02-28T16:14:51;95205.53;;;1.10;69.73
56330;BME280;42236;48.058;10.632;2023-02-28T16:17:38;95202.88;;;1.10;70.05
56330;BME280;42236;48.058;10.632;2023-02-28T16:20:26;95206.59;;;1.09;70.25
56330;BME280;42236;48.058;10.632;2023-02-28T16:23:13;95206.31;;;1.00;70.47
56330;BME280;42236;48.058;10.632;2023-02-28T16:25:58;95205.78;;;0.93;70.75
56330;BME280;42236;48.058;10.632;2023-02-28T16:28:44;95208.44;;;0.88;70.66
56330;BME280;42236;48.058;10.632;2023-02-28T16:31:31;95208.44;;;0.83;70.65
56330;BME280;42236;48.058;10.632;2023-02-28T16:34:20;95213.47;;;0.74;71.16
56330;BME280;42236;48.058;10.632;2023-02-28T16:37:15;95203.09;;;0.57;71.16
56330;BME280;42236;48.058;10.632;2023-02-28T16:40:01;95205.19;;;0.45;72.20
56330;BME280;42236;48.058;10.632;2023-02-28T16:42:51;95220.84;;;0.36;72.65
56330;BME280;42236;48.058;10.632;2023-02-28T16:45:37;95215.78;;;0.30;72.91
56330;BME280;42236;48.058;10.632;2023-02-28T16:48:23;95214.44;;;0.27;72.71
56330;BME280;42236;48.058;10.632;2023-02-28T16:51:13;95224.50;;;0.20;72.82